Albuquerque (West), New Mexico
Current Conditions -  °F | °C
As of 5:15 AM on Friday 24 Oct 2014 (Local Time) from KAEG Reporting Station
Clear Clear  
Wind Chill: 39°   Ceiling: Unl
Heat Index: 42°   Visibility: 10mi
Dew Point: 31°   Wind: 5mph
Humidity: 66%   Direction: 180°S
Pressure: 30.31"   Gusts: NA
Location:  35.15°N, 106.8°W
Report Text: KAEG 241115Z AUTO 18004KT 10SM CLR 05/M01 A3031 RMK AO2 T00531006
Loading
Personal Weather Stations






























Interactive Weather Map
Tropical Storm Tracking
New forecast layout! Learn more

10-Day Weather Forecast

Advertisements
Track Severe Weather on mobile